sensor_id;sensor_type;location;lat;lon;timestamp;P1;durP1;ratioP1;P2;durP2;ratioP2
18125;SDS011;53956;52.442;13.284;2023-12-29T00:01:02;3.47;;;3.17;;
18125;SDS011;53956;52.442;13.284;2023-12-29T00:03:29;4.07;;;3.20;;
18125;SDS011;53956;52.442;13.284;2023-12-29T00:05:56;3.97;;;3.20;;
18125;SDS011;53956;52.442;13.284;2023-12-29T00:08:22;4.87;;;3.40;;
18125;SDS011;53956;52.442;13.284;2023-12-29T00:10:49;4.27;;;3.20;;
18125;SDS011;53956;52.442;13.284;2023-12-29T00:13:15;3.97;;;2.93;;
18125;SDS011;53956;52.442;13.284;2023-12-29T00:15:49;4.97;;;3.50;;
18125;SDS011;53956;52.442;13.284;2023-12-29T00:18:17;4.17;;;3.33;;
18125;SDS011;53956;52.442;13.284;2023-12-29T00:20:44;4.23;;;2.87;;
18125;SDS011;53956;52.442;13.284;2023-12-29T00:23:11;3.93;;;3.43;;
18125;SDS011;53956;52.442;13.284;2023-12-29T00:25:38;5.80;;;3.57;;
18125;SDS011;53956;52.442;13.284;2023-12-29T00:28:05;3.77;;;3.23;;
18125;SDS011;53956;52.442;13.284;2023-12-29T00:30:32;3.93;;;3.10;;
18125;SDS011;53956;52.442;13.284;2023-12-29T00:33:00;4.83;;;3.20;;
18125;SDS011;53956;52.442;13.284;2023-12-29T00:35:27;4.37;;;3.13;;
18125;SDS011;53956;52.442;13.284;2023-12-29T00:37:53;4.17;;;2.83;;
18125;SDS011;53956;52.442;13.284;2023-12-29T00:40:20;3.67;;;3.37;;
18125;SDS011;53956;52.442;13.284;2023-12-29T00:42:46;4.03;;;3.33;;
18125;SDS011;53956;52.442;13.284;2023-12-29T00:45:13;4.53;;;3.50;;
18125;SDS011;53956;52.442;13.284;2023-12-29T00:47:40;4.90;;;3.13;;
18125;SDS011;53956;52.442;13.284;2023-12-29T00:50:08;3.67;;;3.23;;
18125;SDS011;53956;52.442;13.284;2023-12-29T00:52:35;4.73;;;3.20;;
18125;SDS011;53956;52.442;13.284;2023-12-29T00:55:02;5.37;;;3.40;;
18125;SDS011;53956;52.442;13.284;2023-12-29T00:57:29;3.33;;;2.93;;
18125;SDS011;53956;52.442;13.284;2023-12-29T00:59:56;4.97;;;3.13;;
18125;SDS011;53956;52.442;13.284;2023-12-29T01:02:22;5.43;;;3.50;;
18125;SDS011;53956;52.442;13.284;2023-12-29T01:04:49;3.50;;;3.20;;
18125;SDS011;53956;52.442;13.284;2023-12-29T01:07:17;6.00;;;3.93;;
18125;SDS011;53956;52.442;13.284;2023-12-29T01:09:43;6.13;;;3.17;;
18125;SDS011;53956;52.442;13.284;2023-12-29T01:12:10;3.47;;;3.17;;
18125;SDS011;53956;52.442;13.284;2023-12-29T01:14:36;4.23;;;3.20;;
18125;SDS011;53956;52.442;13.284;2023-12-29T01:17:03;3.97;;;3.03;;
18125;SDS011;53956;52.442;13.284;2023-12-29T01:19:30;3.73;;;3.17;;
18125;SDS011;53956;52.442;13.284;2023-12-29T01:21:56;4.77;;;3.30;;
18125;SDS011;53956;52.442;13.284;2023-12-29T01:24:24;4.03;;;3.20;;
18125;SDS011;53956;52.442;13.284;2023-12-29T01:26:51;6.57;;;3.23;;
18125;SDS011;53956;52.442;13.284;2023-12-29T01:29:18;3.60;;;3.30;;
18125;SDS011;53956;52.442;13.284;2023-12-29T01:31:44;3.47;;;3.13;;
18125;SDS011;53956;52.442;13.284;2023-12-29T01:34:11;4.27;;;3.20;;
18125;SDS011;53956;52.442;13.284;2023-12-29T01:36:38;4.70;;;3.37;;
18125;SDS011;53956;52.442;13.284;2023-12-29T01:39:04;5.37;;;3.57;;
18125;SDS011;53956;52.442;13.284;2023-12-29T01:41:32;6.23;;;3.10;;
18125;SDS011;53956;52.442;13.284;2023-12-29T01:44:17;3.80;;;3.37;;
18125;SDS011;53956;52.442;13.284;2023-12-29T01:46:47;5.20;;;3.70;;
18125;SDS011;53956;52.442;13.284;2023-12-29T01:49:15;4.33;;;3.40;;
18125;SDS011;53956;52.442;13.284;2023-12-29T01:51:43;4.83;;;3.10;;
18125;SDS011;53956;52.442;13.284;2023-12-29T01:54:10;3.93;;;3.20;;
18125;SDS011;53956;52.442;13.284;2023-12-29T01:56:41;4.57;;;3.40;;
18125;SDS011;53956;52.442;13.284;2023-12-29T01:59:08;4.47;;;3.60;;
18125;SDS011;53956;52.442;13.284;2023-12-29T02:01:35;4.70;;;3.03;;
18125;SDS011;53956;52.442;13.284;2023-12-29T02:04:03;4.43;;;3.60;;
18125;SDS011;53956;52.442;13.284;2023-12-29T02:06:31;4.80;;;3.53;;
18125;SDS011;53956;52.442;13.284;2023-12-29T02:08:59;4.43;;;3.50;;
18125;SDS011;53956;52.442;13.284;2023-12-29T02:11:28;5.00;;;3.60;;
18125;SDS011;53956;52.442;13.284;2023-12-29T02:13:57;3.97;;;3.23;;
18125;SDS011;53956;52.442;13.284;2023-12-29T02:16:27;4.13;;;3.40;;
18125;SDS011;53956;52.442;13.284;2023-12-29T02:19:00;5.67;;;3.57;;
18125;SDS011;53956;52.442;13.284;2023-12-29T02:21:30;6.20;;;3.53;;
18125;SDS011;53956;52.442;13.284;2023-12-29T02:23:56;4.17;;;3.40;;
18125;SDS011;53956;52.442;13.284;2023-12-29T02:26:25;4.00;;;3.60;;
18125;SDS011;53956;52.442;13.284;2023-12-29T02:28:57;6.37;;;3.50;;
18125;SDS011;53956;52.442;13.284;2023-12-29T02:31:28;3.90;;;3.10;;
18125;SDS011;53956;52.442;13.284;2023-12-29T02:33:57;4.80;;;3.53;;
18125;SDS011;53956;52.442;13.284;2023-12-29T02:36:28;4.80;;;3.47;;
18125;SDS011;53956;52.442;13.284;2023-12-29T02:38:55;4.07;;;3.43;;
18125;SDS011;53956;52.442;13.284;2023-12-29T02:41:22;4.70;;;3.33;;
18125;SDS011;53956;52.442;13.284;2023-12-29T02:43:51;3.90;;;3.30;;
18125;SDS011;53956;52.442;13.284;2023-12-29T02:46:17;4.60;;;3.80;;
18125;SDS011;53956;52.442;13.284;2023-12-29T02:48:44;3.77;;;3.17;;
18125;SDS011;53956;52.442;13.284;2023-12-29T02:51:12;4.47;;;3.40;;
18125;SDS011;53956;52.442;13.284;2023-12-29T02:53:38;3.50;;;3.20;;
18125;SDS011;53956;52.442;13.284;2023-12-29T02:56:05;5.93;;;3.27;;
18125;SDS011;53956;52.442;13.284;2023-12-29T02:58:32;3.67;;;3.20;;
18125;SDS011;53956;52.442;13.284;2023-12-29T03:01:00;3.67;;;3.07;;
18125;SDS011;53956;52.442;13.284;2023-12-29T03:03:27;3.20;;;2.90;;
18125;SDS011;53956;52.442;13.284;2023-12-29T03:05:53;4.00;;;3.30;;
18125;SDS011;53956;52.442;13.284;2023-12-29T03:08:20;4.10;;;3.30;;
18125;SDS011;53956;52.442;13.284;2023-12-29T03:10:46;3.40;;;3.10;;
18125;SDS011;53956;52.442;13.284;2023-12-29T03:13:13;3.57;;;3.27;;
18125;SDS011;53956;52.442;13.284;2023-12-29T03:15:40;3.77;;;2.70;;
18125;SDS011;53956;52.442;13.284;2023-12-29T03:18:08;5.37;;;3.27;;
18125;SDS011;53956;52.442;13.284;2023-12-29T03:20:35;3.20;;;2.90;;
18125;SDS011;53956;52.442;13.284;2023-12-29T03:23:01;4.53;;;3.30;;
18125;SDS011;53956;52.442;13.284;2023-12-29T03:25:28;3.50;;;2.90;;
18125;SDS011;53956;52.442;13.284;2023-12-29T03:27:55;3.47;;;2.97;;
18125;SDS011;53956;52.442;13.284;2023-12-29T03:30:21;4.27;;;3.07;;
18125;SDS011;53956;52.442;13.284;2023-12-29T03:32:48;3.37;;;3.07;;
18125;SDS011;53956;52.442;13.284;2023-12-29T03:35:16;3.53;;;2.80;;
18125;SDS011;53956;52.442;13.284;2023-12-29T03:37:42;3.20;;;2.90;;
18125;SDS011;53956;52.442;13.284;2023-12-29T03:40:09;3.80;;;3.00;;
18125;SDS011;53956;52.442;13.284;2023-12-29T03:42:37;4.23;;;3.03;;
18125;SDS011;53956;52.442;13.284;2023-12-29T03:45:05;3.20;;;2.90;;
18125;SDS011;53956;52.442;13.284;2023-12-29T03:47:32;3.17;;;2.80;;
18125;SDS011;53956;52.442;13.284;2023-12-29T03:50:00;3.23;;;2.70;;
18125;SDS011;53956;52.442;13.284;2023-12-29T03:52:28;3.50;;;2.93;;
18125;SDS011;53956;52.442;13.284;2023-12-29T03:54:55;3.83;;;2.80;;
18125;SDS011;53956;52.442;13.284;2023-12-29T03:57:21;3.70;;;2.90;;
18125;SDS011;53956;52.442;13.284;2023-12-29T03:59:48;4.17;;;3.00;;
18125;SDS011;53956;52.442;13.284;2023-12-29T04:02:15;2.93;;;2.73;;
18125;SDS011;53956;52.442;13.284;2023-12-29T04:04:43;4.50;;;2.70;;
18125;SDS011;53956;52.442;13.284;2023-12-29T04:07:11;3.53;;;2.80;;
18125;SDS011;53956;52.442;13.284;2023-12-29T04:09:39;4.20;;;2.73;;
18125;SDS011;53956;52.442;13.284;2023-12-29T04:12:06;3.10;;;2.80;;
18125;SDS011;53956;52.442;13.284;2023-12-29T04:14:33;2.77;;;2.57;;
18125;SDS011;53956;52.442;13.284;2023-12-29T04:16:59;2.90;;;2.60;;
18125;SDS011;53956;52.442;13.284;2023-12-29T04:19:28;4.33;;;2.53;;
18125;SDS011;53956;52.442;13.284;2023-12-29T04:21:55;3.10;;;2.80;;
18125;SDS011;53956;52.442;13.284;2023-12-29T04:24:22;2.80;;;2.50;;
18125;SDS011;53956;52.442;13.284;2023-12-29T04:26:50;2.50;;;2.30;;
18125;SDS011;53956;52.442;13.284;2023-12-29T04:29:17;3.10;;;2.73;;
18125;SDS011;53956;52.442;13.284;2023-12-29T04:31:43;3.47;;;2.40;;
18125;SDS011;53956;52.442;13.284;2023-12-29T04:34:13;5.30;;;2.70;;
18125;SDS011;53956;52.442;13.284;2023-12-29T04:36:40;3.60;;;2.57;;
18125;SDS011;53956;52.442;13.284;2023-12-29T04:39:07;2.67;;;2.47;;
18125;SDS011;53956;52.442;13.284;2023-12-29T04:41:34;3.70;;;2.40;;
18125;SDS011;53956;52.442;13.284;2023-12-29T04:44:02;4.33;;;2.30;;
18125;SDS011;53956;52.442;13.284;2023-12-29T04:46:28;3.87;;;2.43;;
18125;SDS011;53956;52.442;13.284;2023-12-29T04:48:55;2.53;;;2.17;;
18125;SDS011;53956;52.442;13.284;2023-12-29T04:51:21;2.67;;;2.30;;
18125;SDS011;53956;52.442;13.284;2023-12-29T04:53:48;2.40;;;2.20;;
18125;SDS011;53956;52.442;13.284;2023-12-29T04:56:14;2.93;;;2.30;;
18125;SDS011;53956;52.442;13.284;2023-12-29T04:58:41;3.10;;;2.43;;
18125;SDS011;53956;52.442;13.284;2023-12-29T05:01:09;4.83;;;2.33;;
18125;SDS011;53956;52.442;13.284;2023-12-29T05:03:36;2.53;;;2.10;;
18125;SDS011;53956;52.442;13.284;2023-12-29T05:06:02;2.43;;;2.20;;
18125;SDS011;53956;52.442;13.284;2023-12-29T05:08:29;3.13;;;2.20;;
18125;SDS011;53956;52.442;13.284;2023-12-29T05:10:56;4.10;;;2.30;;
18125;SDS011;53956;52.442;13.284;2023-12-29T05:13:23;2.60;;;2.40;;
18125;SDS011;53956;52.442;13.284;2023-12-29T05:15:49;2.40;;;2.20;;
18125;SDS011;53956;52.442;13.284;2023-12-29T05:18:17;3.70;;;2.27;;
18125;SDS011;53956;52.442;13.284;2023-12-29T05:20:44;3.20;;;2.33;;
18125;SDS011;53956;52.442;13.284;2023-12-29T05:23:11;2.60;;;2.20;;
18125;SDS011;53956;52.442;13.284;2023-12-29T05:25:37;3.83;;;2.40;;
18125;SDS011;53956;52.442;13.284;2023-12-29T05:28:05;2.40;;;2.20;;
18125;SDS011;53956;52.442;13.284;2023-12-29T05:30:31;2.63;;;2.40;;
18125;SDS011;53956;52.442;13.284;2023-12-29T05:32:58;3.03;;;2.20;;
18125;SDS011;53956;52.442;13.284;2023-12-29T05:35:26;2.50;;;2.23;;
18125;SDS011;53956;52.442;13.284;2023-12-29T05:37:52;2.70;;;2.40;;
18125;SDS011;53956;52.442;13.284;2023-12-29T05:40:19;3.10;;;2.30;;
18125;SDS011;53956;52.442;13.284;2023-12-29T05:42:46;2.00;;;1.90;;
18125;SDS011;53956;52.442;13.284;2023-12-29T05:45:12;4.03;;;2.30;;
18125;SDS011;53956;52.442;13.284;2023-12-29T05:47:41;2.70;;;2.10;;
18125;SDS011;53956;52.442;13.284;2023-12-29T05:50:08;2.47;;;2.27;;
18125;SDS011;53956;52.442;13.284;2023-12-29T05:52:36;3.67;;;2.40;;
18125;SDS011;53956;52.442;13.284;2023-12-29T05:55:03;2.60;;;2.20;;
18125;SDS011;53956;52.442;13.284;2023-12-29T05:57:30;2.63;;;2.30;;
18125;SDS011;53956;52.442;13.284;2023-12-29T05:59:56;2.30;;;2.10;;
18125;SDS011;53956;52.442;13.284;2023-12-29T06:02:23;2.60;;;2.40;;
18125;SDS011;53956;52.442;13.284;2023-12-29T06:04:49;2.90;;;2.17;;
18125;SDS011;53956;52.442;13.284;2023-12-29T06:07:16;2.73;;;2.07;;
18125;SDS011;53956;52.442;13.284;2023-12-29T06:09:44;2.20;;;2.00;;
18125;SDS011;53956;52.442;13.284;2023-12-29T06:12:10;2.73;;;2.13;;
18125;SDS011;53956;52.442;13.284;2023-12-29T06:14:37;3.30;;;2.30;;
18125;SDS011;53956;52.442;13.284;2023-12-29T06:17:04;2.30;;;2.10;;
18125;SDS011;53956;52.442;13.284;2023-12-29T06:19:30;2.80;;;2.40;;
18125;SDS011;53956;52.442;13.284;2023-12-29T06:21:57;2.87;;;2.23;;
18125;SDS011;53956;52.442;13.284;2023-12-29T06:24:24;2.97;;;2.40;;
18125;SDS011;53956;52.442;13.284;2023-12-29T06:26:52;3.33;;;2.30;;
18125;SDS011;53956;52.442;13.284;2023-12-29T06:29:19;2.60;;;2.40;;
18125;SDS011;53956;52.442;13.284;2023-12-29T06:31:45;4.07;;;2.53;;
18125;SDS011;53956;52.442;13.284;2023-12-29T06:34:12;4.33;;;2.30;;
18125;SDS011;53956;52.442;13.284;2023-12-29T06:36:39;4.13;;;2.43;;
18125;SDS011;53956;52.442;13.284;2023-12-29T06:39:06;2.60;;;2.30;;
18125;SDS011;53956;52.442;13.284;2023-12-29T06:41:32;2.43;;;2.23;;
18125;SDS011;53956;52.442;13.284;2023-12-29T06:44:00;3.40;;;2.80;;
18125;SDS011;53956;52.442;13.284;2023-12-29T06:46:27;2.60;;;2.40;;
18125;SDS011;53956;52.442;13.284;2023-12-29T06:48:53;3.50;;;2.57;;
18125;SDS011;53956;52.442;13.284;2023-12-29T06:51:20;2.77;;;2.20;;
18125;SDS011;53956;52.442;13.284;2023-12-29T06:53:48;2.70;;;2.50;;
18125;SDS011;53956;52.442;13.284;2023-12-29T06:56:15;2.93;;;2.27;;
18125;SDS011;53956;52.442;13.284;2023-12-29T06:58:42;3.93;;;2.40;;
18125;SDS011;53956;52.442;13.284;2023-12-29T07:01:11;4.27;;;2.53;;
18125;SDS011;53956;52.442;13.284;2023-12-29T07:03:37;2.90;;;2.60;;
18125;SDS011;53956;52.442;13.284;2023-12-29T07:06:04;4.30;;;2.63;;
18125;SDS011;53956;52.442;13.284;2023-12-29T07:08:31;3.57;;;2.40;;
18125;SDS011;53956;52.442;13.284;2023-12-29T07:10:58;2.70;;;2.50;;
18125;SDS011;53956;52.442;13.284;2023-12-29T07:13:24;4.97;;;2.60;;
18125;SDS011;53956;52.442;13.284;2023-12-29T07:15:51;3.00;;;2.40;;
18125;SDS011;53956;52.442;13.284;2023-12-29T07:18:19;3.23;;;2.33;;
18125;SDS011;53956;52.442;13.284;2023-12-29T07:20:45;4.70;;;2.60;;
18125;SDS011;53956;52.442;13.284;2023-12-29T07:23:12;2.60;;;2.40;;
18125;SDS011;53956;52.442;13.284;2023-12-29T07:25:38;2.90;;;2.60;;
18125;SDS011;53956;52.442;13.284;2023-12-29T07:28:05;4.47;;;2.73;;
18125;SDS011;53956;52.442;13.284;2023-12-29T07:30:32;3.33;;;2.57;;
18125;SDS011;53956;52.442;13.284;2023-12-29T07:32:58;3.47;;;2.60;;
18125;SDS011;53956;52.442;13.284;2023-12-29T07:35:27;5.23;;;2.57;;
18125;SDS011;53956;52.442;13.284;2023-12-29T07:37:54;5.70;;;2.60;;
18125;SDS011;53956;52.442;13.284;2023-12-29T07:40:20;3.80;;;2.53;;
18125;SDS011;53956;52.442;13.284;2023-12-29T07:42:47;3.80;;;2.70;;
18125;SDS011;53956;52.442;13.284;2023-12-29T07:45:15;3.47;;;2.73;;
18125;SDS011;53956;52.442;13.284;2023-12-29T07:47:42;5.57;;;2.80;;
18125;SDS011;53956;52.442;13.284;2023-12-29T07:50:09;5.90;;;2.80;;
18125;SDS011;53956;52.442;13.284;2023-12-29T07:52:37;5.07;;;2.70;;
18125;SDS011;53956;52.442;13.284;2023-12-29T07:55:03;5.43;;;2.60;;
18125;SDS011;53956;52.442;13.284;2023-12-29T07:57:30;4.90;;;2.70;;
18125;SDS011;53956;52.442;13.284;2023-12-29T07:59:57;4.67;;;2.87;;
18125;SDS011;53956;52.442;13.284;2023-12-29T08:02:24;6.53;;;3.17;;
18125;SDS011;53956;52.442;13.284;2023-12-29T08:04:50;8.80;;;3.50;;
18125;SDS011;53956;52.442;13.284;2023-12-29T08:07:17;6.43;;;2.90;;
18125;SDS011;53956;52.442;13.284;2023-12-29T08:09:45;4.17;;;2.80;;
18125;SDS011;53956;52.442;13.284;2023-12-29T08:12:11;3.50;;;2.70;;
18125;SDS011;53956;52.442;13.284;2023-12-29T08:14:38;5.33;;;2.47;;
18125;SDS011;53956;52.442;13.284;2023-12-29T08:17:05;5.27;;;2.70;;
18125;SDS011;53956;52.442;13.284;2023-12-29T08:19:32;2.80;;;2.40;;
18125;SDS011;53956;52.442;13.284;2023-12-29T08:21:58;4.67;;;2.53;;
18125;SDS011;53956;52.442;13.284;2023-12-29T08:24:25;2.77;;;2.30;;
18125;SDS011;53956;52.442;13.284;2023-12-29T08:26:53;4.27;;;2.53;;
18125;SDS011;53956;52.442;13.284;2023-12-29T08:29:19;3.53;;;2.60;;
18125;SDS011;53956;52.442;13.284;2023-12-29T08:31:46;4.27;;;2.43;;
18125;SDS011;53956;52.442;13.284;2023-12-29T08:34:13;4.20;;;2.70;;
18125;SDS011;53956;52.442;13.284;2023-12-29T08:36:40;3.97;;;2.60;;
18125;SDS011;53956;52.442;13.284;2023-12-29T08:39:07;2.80;;;2.30;;
18125;SDS011;53956;52.442;13.284;2023-12-29T08:41:34;5.80;;;2.60;;
18125;SDS011;53956;52.442;13.284;2023-12-29T08:44:02;3.23;;;2.27;;
18125;SDS011;53956;52.442;13.284;2023-12-29T08:46:29;4.33;;;2.50;;
18125;SDS011;53956;52.442;13.284;2023-12-29T08:48:55;3.13;;;2.50;;
18125;SDS011;53956;52.442;13.284;2023-12-29T08:51:22;3.47;;;2.50;;
18125;SDS011;53956;52.442;13.284;2023-12-29T08:53:49;4.27;;;2.60;;
18125;SDS011;53956;52.442;13.284;2023-12-29T08:56:16;3.60;;;2.40;;
18125;SDS011;53956;52.442;13.284;2023-12-29T08:58:42;4.70;;;2.63;;
18125;SDS011;53956;52.442;13.284;2023-12-29T09:01:10;3.33;;;2.27;;
18125;SDS011;53956;52.442;13.284;2023-12-29T09:03:37;3.37;;;2.40;;
18125;SDS011;53956;52.442;13.284;2023-12-29T09:06:04;4.40;;;2.50;;
18125;SDS011;53956;52.442;13.284;2023-12-29T09:08:33;5.00;;;2.53;;
18125;SDS011;53956;52.442;13.284;2023-12-29T09:11:00;3.23;;;2.47;;
18125;SDS011;53956;52.442;13.284;2023-12-29T09:13:27;5.07;;;2.57;;
18125;SDS011;53956;52.442;13.284;2023-12-29T09:15:54;3.17;;;2.30;;
18125;SDS011;53956;52.442;13.284;2023-12-29T09:18:22;5.90;;;2.57;;
18125;SDS011;53956;52.442;13.284;2023-12-29T09:20:48;4.73;;;2.60;;
18125;SDS011;53956;52.442;13.284;2023-12-29T09:23:15;4.07;;;2.53;;
18125;SDS011;53956;52.442;13.284;2023-12-29T09:25:42;6.10;;;2.83;;
18125;SDS011;53956;52.442;13.284;2023-12-29T09:28:08;4.47;;;2.43;;
18125;SDS011;53956;52.442;13.284;2023-12-29T09:30:35;5.10;;;2.60;;
18125;SDS011;53956;52.442;13.284;2023-12-29T09:33:02;5.47;;;2.30;;
18125;SDS011;53956;52.442;13.284;2023-12-29T09:35:30;4.40;;;2.40;;
18125;SDS011;53956;52.442;13.284;2023-12-29T09:37:57;4.77;;;2.40;;
18125;SDS011;53956;52.442;13.284;2023-12-29T09:40:24;5.80;;;2.60;;
18125;SDS011;53956;52.442;13.284;2023-12-29T09:42:51;5.47;;;2.80;;
18125;SDS011;53956;52.442;13.284;2023-12-29T09:45:20;8.10;;;2.90;;
18125;SDS011;53956;52.442;13.284;2023-12-29T09:47:50;7.27;;;2.83;;
18125;SDS011;53956;52.442;13.284;2023-12-29T09:50:18;4.70;;;2.63;;
18125;SDS011;53956;52.442;13.284;2023-12-29T09:52:46;6.27;;;2.90;;
18125;SDS011;53956;52.442;13.284;2023-12-29T09:55:14;7.10;;;2.60;;
18125;SDS011;53956;52.442;13.284;2023-12-29T09:57:41;5.67;;;2.40;;
18125;SDS011;53956;52.442;13.284;2023-12-29T10:00:10;5.13;;;2.40;;
18125;SDS011;53956;52.442;13.284;2023-12-29T10:02:38;3.93;;;2.33;;
18125;SDS011;53956;52.442;13.284;2023-12-29T10:05:05;3.97;;;2.53;;
18125;SDS011;53956;52.442;13.284;2023-12-29T10:07:35;6.50;;;2.80;;
18125;SDS011;53956;52.442;13.284;2023-12-29T10:10:05;4.93;;;2.50;;
18125;SDS011;53956;52.442;13.284;2023-12-29T10:12:32;3.90;;;2.37;;
18125;SDS011;53956;52.442;13.284;2023-12-29T10:15:04;6.50;;;2.60;;
18125;SDS011;53956;52.442;13.284;2023-12-29T10:17:36;9.03;;;2.60;;
18125;SDS011;53956;52.442;13.284;2023-12-29T10:20:17;5.87;;;2.50;;
18125;SDS011;53956;52.442;13.284;2023-12-29T10:22:51;5.67;;;2.30;;
18125;SDS011;53956;52.442;13.284;2023-12-29T10:25:27;2.53;;;2.17;;
18125;SDS011;53956;52.442;13.284;2023-12-29T10:27:55;6.73;;;2.67;;
18125;SDS011;53956;52.442;13.284;2023-12-29T10:30:22;6.90;;;2.60;;
18125;SDS011;53956;52.442;13.284;2023-12-29T10:32:49;3.10;;;2.20;;
18125;SDS011;53956;52.442;13.284;2023-12-29T10:35:16;3.20;;;2.07;;
18125;SDS011;53956;52.442;13.284;2023-12-29T10:37:43;2.80;;;2.30;;
18125;SDS011;53956;52.442;13.284;2023-12-29T10:40:11;18.37;;;3.30;;
18125;SDS011;53956;52.442;13.284;2023-12-29T10:42:52;9.20;;;3.00;;
18125;SDS011;53956;52.442;13.284;2023-12-29T10:45:19;9.00;;;2.70;;
18125;SDS011;53956;52.442;13.284;2023-12-29T10:47:47;3.40;;;2.30;;
18125;SDS011;53956;52.442;13.284;2023-12-29T10:50:14;5.57;;;2.10;;
18125;SDS011;53956;52.442;13.284;2023-12-29T10:52:40;6.83;;;2.40;;
18125;SDS011;53956;52.442;13.284;2023-12-29T10:55:08;7.33;;;2.13;;
18125;SDS011;53956;52.442;13.284;2023-12-29T10:57:36;3.53;;;2.27;;
18125;SDS011;53956;52.442;13.284;2023-12-29T11:00:05;5.63;;;2.40;;
18125;SDS011;53956;52.442;13.284;2023-12-29T11:02:33;6.33;;;2.40;;
18125;SDS011;53956;52.442;13.284;2023-12-29T11:05:03;5.23;;;2.47;;
18125;SDS011;53956;52.442;13.284;2023-12-29T11:07:31;5.40;;;2.40;;
18125;SDS011;53956;52.442;13.284;2023-12-29T11:10:00;3.50;;;2.30;;
18125;SDS011;53956;52.442;13.284;2023-12-29T11:12:29;5.47;;;2.50;;
18125;SDS011;53956;52.442;13.284;2023-12-29T11:14:58;4.13;;;2.30;;
18125;SDS011;53956;52.442;13.284;2023-12-29T11:17:26;3.67;;;2.20;;
18125;SDS011;53956;52.442;13.284;2023-12-29T11:19:57;4.93;;;2.43;;
18125;SDS011;53956;52.442;13.284;2023-12-29T11:22:24;5.47;;;2.40;;
18125;SDS011;53956;52.442;13.284;2023-12-29T11:24:53;5.57;;;2.40;;
18125;SDS011;53956;52.442;13.284;2023-12-29T11:27:20;6.43;;;2.83;;
18125;SDS011;53956;52.442;13.284;2023-12-29T11:29:48;5.90;;;2.30;;
18125;SDS011;53956;52.442;13.284;2023-12-29T11:32:16;4.50;;;2.30;;
18125;SDS011;53956;52.442;13.284;2023-12-29T11:34:51;5.67;;;2.50;;
18125;SDS011;53956;52.442;13.284;2023-12-29T11:37:21;4.07;;;2.57;;
18125;SDS011;53956;52.442;13.284;2023-12-29T11:40:00;5.30;;;2.47;;
18125;SDS011;53956;52.442;13.284;2023-12-29T11:42:38;6.50;;;2.37;;
18125;SDS011;53956;52.442;13.284;2023-12-29T11:47:52;4.03;;;1.93;;
18125;SDS011;53956;52.442;13.284;2023-12-29T11:50:28;4.47;;;2.30;;
18125;SDS011;53956;52.442;13.284;2023-12-29T11:52:59;4.60;;;2.40;;
18125;SDS011;53956;52.442;13.284;2023-12-29T11:55:29;2.73;;;2.10;;
18125;SDS011;53956;52.442;13.284;2023-12-29T11:57:56;4.40;;;2.43;;
18125;SDS011;53956;52.442;13.284;2023-12-29T12:00:42;5.43;;;2.47;;
18125;SDS011;53956;52.442;13.284;2023-12-29T12:03:13;4.47;;;2.63;;
18125;SDS011;53956;52.442;13.284;2023-12-29T12:05:45;5.30;;;2.60;;
18125;SDS011;53956;52.442;13.284;2023-12-29T12:08:26;3.70;;;2.30;;
18125;SDS011;53956;52.442;13.284;2023-12-29T12:10:54;5.07;;;2.13;;
18125;SDS011;53956;52.442;13.284;2023-12-29T12:13:41;4.60;;;2.43;;
18125;SDS011;53956;52.442;13.284;2023-12-29T12:16:09;7.83;;;2.77;;
18125;SDS011;53956;52.442;13.284;2023-12-29T12:18:35;4.47;;;2.50;;
18125;SDS011;53956;52.442;13.284;2023-12-29T12:21:06;3.50;;;2.37;;
18125;SDS011;53956;52.442;13.284;2023-12-29T12:23:34;6.00;;;2.50;;
18125;SDS011;53956;52.442;13.284;2023-12-29T12:26:02;3.33;;;2.20;;
18125;SDS011;53956;52.442;13.284;2023-12-29T12:28:32;3.10;;;2.27;;
18125;SDS011;53956;52.442;13.284;2023-12-29T12:31:04;3.23;;;2.30;;
18125;SDS011;53956;52.442;13.284;2023-12-29T12:33:32;4.90;;;2.53;;
18125;SDS011;53956;52.442;13.284;2023-12-29T12:35:59;3.90;;;2.23;;
18125;SDS011;53956;52.442;13.284;2023-12-29T12:38:27;6.27;;;2.50;;
18125;SDS011;53956;52.442;13.284;2023-12-29T12:40:55;4.60;;;2.63;;
18125;SDS011;53956;52.442;13.284;2023-12-29T12:43:22;3.80;;;2.40;;
18125;SDS011;53956;52.442;13.284;2023-12-29T12:45:53;4.30;;;2.30;;
18125;SDS011;53956;52.442;13.284;2023-12-29T12:48:22;6.00;;;2.70;;
18125;SDS011;53956;52.442;13.284;2023-12-29T12:50:55;3.30;;;2.50;;
18125;SDS011;53956;52.442;13.284;2023-12-29T12:53:24;3.60;;;2.73;;
18125;SDS011;53956;52.442;13.284;2023-12-29T12:55:52;5.40;;;2.50;;
18125;SDS011;53956;52.442;13.284;2023-12-29T12:58:19;4.23;;;2.60;;
18125;SDS011;53956;52.442;13.284;2023-12-29T13:00:46;4.20;;;2.50;;
18125;SDS011;53956;52.442;13.284;2023-12-29T13:03:13;4.87;;;2.50;;
18125;SDS011;53956;52.442;13.284;2023-12-29T13:05:41;6.40;;;2.80;;
18125;SDS011;53956;52.442;13.284;2023-12-29T13:08:08;5.50;;;2.70;;
18125;SDS011;53956;52.442;13.284;2023-12-29T13:10:39;3.47;;;2.50;;
18125;SDS011;53956;52.442;13.284;2023-12-29T13:13:08;7.50;;;2.77;;
18125;SDS011;53956;52.442;13.284;2023-12-29T13:15:34;4.70;;;2.73;;
18125;SDS011;53956;52.442;13.284;2023-12-29T13:18:01;4.40;;;2.60;;
18125;SDS011;53956;52.442;13.284;2023-12-29T13:20:28;4.43;;;2.80;;
18125;SDS011;53956;52.442;13.284;2023-12-29T13:22:54;3.57;;;2.37;;
18125;SDS011;53956;52.442;13.284;2023-12-29T13:25:23;3.83;;;2.67;;
18125;SDS011;53956;52.442;13.284;2023-12-29T13:27:52;5.73;;;2.60;;
18125;SDS011;53956;52.442;13.284;2023-12-29T13:30:21;2.90;;;2.53;;
18125;SDS011;53956;52.442;13.284;2023-12-29T13:32:48;5.60;;;2.20;;
18125;SDS011;53956;52.442;13.284;2023-12-29T13:35:17;3.53;;;2.63;;
18125;SDS011;53956;52.442;13.284;2023-12-29T13:37:50;4.90;;;2.47;;
18125;SDS011;53956;52.442;13.284;2023-12-29T13:40:22;4.00;;;2.33;;
18125;SDS011;53956;52.442;13.284;2023-12-29T13:42:54;5.90;;;2.60;;
18125;SDS011;53956;52.442;13.284;2023-12-29T13:45:24;2.90;;;2.10;;
18125;SDS011;53956;52.442;13.284;2023-12-29T13:47:52;3.87;;;2.50;;
18125;SDS011;53956;52.442;13.284;2023-12-29T13:50:21;3.17;;;2.30;;
18125;SDS011;53956;52.442;13.284;2023-12-29T13:52:49;3.03;;;2.43;;
18125;SDS011;53956;52.442;13.284;2023-12-29T13:55:20;2.77;;;2.40;;
18125;SDS011;53956;52.442;13.284;2023-12-29T13:57:47;3.40;;;2.10;;
18125;SDS011;53956;52.442;13.284;2023-12-29T14:00:14;2.77;;;2.30;;
18125;SDS011;53956;52.442;13.284;2023-12-29T14:02:45;4.63;;;2.30;;
18125;SDS011;53956;52.442;13.284;2023-12-29T14:05:18;2.83;;;2.07;;
18125;SDS011;53956;52.442;13.284;2023-12-29T14:07:47;3.87;;;2.13;;
18125;SDS011;53956;52.442;13.284;2023-12-29T14:10:28;2.30;;;2.10;;
18125;SDS011;53956;52.442;13.284;2023-12-29T14:12:55;2.53;;;2.10;;
18125;SDS011;53956;52.442;13.284;2023-12-29T14:15:29;3.13;;;2.13;;
18125;SDS011;53956;52.442;13.284;2023-12-29T14:18:02;4.57;;;2.20;;
18125;SDS011;53956;52.442;13.284;2023-12-29T14:20:34;4.13;;;2.27;;
18125;SDS011;53956;52.442;13.284;2023-12-29T14:23:02;2.60;;;1.97;;
18125;SDS011;53956;52.442;13.284;2023-12-29T14:25:29;2.43;;;2.20;;
18125;SDS011;53956;52.442;13.284;2023-12-29T14:27:59;3.30;;;2.10;;
18125;SDS011;53956;52.442;13.284;2023-12-29T14:30:26;2.67;;;2.13;;
18125;SDS011;53956;52.442;13.284;2023-12-29T14:32:53;2.60;;;1.90;;
18125;SDS011;53956;52.442;13.284;2023-12-29T14:35:21;2.30;;;2.10;;
18125;SDS011;53956;52.442;13.284;2023-12-29T14:37:48;3.23;;;2.17;;
18125;SDS011;53956;52.442;13.284;2023-12-29T14:40:15;2.80;;;2.10;;